sensor_id;sensor_type;location;lat;lon;timestamp;P1;durP1;ratioP1;P2;durP2;ratioP2
38226;SDS011;24026;49.446;8.576;2023-05-07T00:00:45;137.18;;;124.72;;
38226;SDS011;24026;49.446;8.576;2023-05-07T00:03:05;137.52;;;125.03;;
38226;SDS011;24026;49.446;8.576;2023-05-07T00:05:26;138.18;;;125.68;;
38226;SDS011;24026;49.446;8.576;2023-05-07T00:07:47;137.55;;;125.13;;
38226;SDS011;24026;49.446;8.576;2023-05-07T00:10:07;137.05;;;124.57;;
38226;SDS011;24026;49.446;8.576;2023-05-07T00:12:28;137.40;;;124.80;;
38226;SDS011;24026;49.446;8.576;2023-05-07T00:14:51;137.88;;;125.45;;
38226;SDS011;24026;49.446;8.576;2023-05-07T00:17:11;138.02;;;125.32;;
38226;SDS011;24026;49.446;8.576;2023-05-07T00:19:32;137.27;;;124.65;;
38226;SDS011;24026;49.446;8.576;2023-05-07T00:21:52;136.93;;;124.55;;
38226;SDS011;24026;49.446;8.576;2023-05-07T00:24:16;138.40;;;125.78;;
38226;SDS011;24026;49.446;8.576;2023-05-07T00:26:36;137.60;;;124.90;;
38226;SDS011;24026;49.446;8.576;2023-05-07T00:28:57;138.77;;;126.28;;
38226;SDS011;24026;49.446;8.576;2023-05-07T00:31:17;136.68;;;124.28;;
38226;SDS011;24026;49.446;8.576;2023-05-07T00:33:38;137.30;;;124.85;;
38226;SDS011;24026;49.446;8.576;2023-05-07T00:35:58;137.07;;;124.65;;
38226;SDS011;24026;49.446;8.576;2023-05-07T00:38:20;135.55;;;123.25;;
38226;SDS011;24026;49.446;8.576;2023-05-07T00:40:41;136.98;;;124.57;;
38226;SDS011;24026;49.446;8.576;2023-05-07T00:43:01;136.55;;;124.10;;
38226;SDS011;24026;49.446;8.576;2023-05-07T00:45:22;135.98;;;123.70;;
38226;SDS011;24026;49.446;8.576;2023-05-07T00:47:46;136.25;;;123.93;;
38226;SDS011;24026;49.446;8.576;2023-05-07T00:50:06;136.75;;;124.25;;
38226;SDS011;24026;49.446;8.576;2023-05-07T00:52:27;135.68;;;123.28;;
38226;SDS011;24026;49.446;8.576;2023-05-07T00:54:49;136.65;;;124.00;;
38226;SDS011;24026;49.446;8.576;2023-05-07T00:57:10;136.55;;;124.18;;
38226;SDS011;24026;49.446;8.576;2023-05-07T00:59:31;136.15;;;123.78;;
38226;SDS011;24026;49.446;8.576;2023-05-07T01:01:52;136.93;;;124.38;;
38226;SDS011;24026;49.446;8.576;2023-05-07T01:04:13;136.57;;;123.97;;
38226;SDS011;24026;49.446;8.576;2023-05-07T01:06:33;137.05;;;124.65;;
38226;SDS011;24026;49.446;8.576;2023-05-07T01:08:54;136.98;;;124.50;;
38226;SDS011;24026;49.446;8.576;2023-05-07T01:11:16;137.05;;;124.45;;
38226;SDS011;24026;49.446;8.576;2023-05-07T01:13:39;137.05;;;124.43;;
38226;SDS011;24026;49.446;8.576;2023-05-07T01:16:01;136.85;;;124.35;;
38226;SDS011;24026;49.446;8.576;2023-05-07T01:18:22;135.95;;;123.45;;
38226;SDS011;24026;49.446;8.576;2023-05-07T01:20:43;136.82;;;124.43;;
38226;SDS011;24026;49.446;8.576;2023-05-07T01:23:03;135.15;;;122.80;;
38226;SDS011;24026;49.446;8.576;2023-05-07T01:25:25;135.18;;;122.88;;
38226;SDS011;24026;49.446;8.576;2023-05-07T01:27:45;135.25;;;122.85;;
38226;SDS011;24026;49.446;8.576;2023-05-07T01:30:06;135.93;;;123.55;;
38226;SDS011;24026;49.446;8.576;2023-05-07T01:32:29;135.15;;;122.93;;
38226;SDS011;24026;49.446;8.576;2023-05-07T01:34:51;135.95;;;123.55;;
38226;SDS011;24026;49.446;8.576;2023-05-07T01:37:14;136.15;;;123.80;;
38226;SDS011;24026;49.446;8.576;2023-05-07T01:39:35;136.23;;;123.95;;
38226;SDS011;24026;49.446;8.576;2023-05-07T01:41:59;135.52;;;123.03;;
38226;SDS011;24026;49.446;8.576;2023-05-07T01:44:19;135.95;;;123.53;;
38226;SDS011;24026;49.446;8.576;2023-05-07T01:46:40;135.27;;;122.88;;
38226;SDS011;24026;49.446;8.576;2023-05-07T01:49:00;135.85;;;123.55;;
38226;SDS011;24026;49.446;8.576;2023-05-07T01:51:21;135.32;;;122.93;;
38226;SDS011;24026;49.446;8.576;2023-05-07T01:53:42;135.57;;;123.28;;
38226;SDS011;24026;49.446;8.576;2023-05-07T01:56:03;136.68;;;124.43;;
38226;SDS011;24026;49.446;8.576;2023-05-07T01:58:25;135.65;;;123.40;;
38226;SDS011;24026;49.446;8.576;2023-05-07T02:00:45;136.57;;;124.07;;
38226;SDS011;24026;49.446;8.576;2023-05-07T02:03:06;135.23;;;123.00;;
38226;SDS011;24026;49.446;8.576;2023-05-07T02:05:26;136.20;;;123.80;;
38226;SDS011;24026;49.446;8.576;2023-05-07T02:07:46;136.50;;;124.13;;
38226;SDS011;24026;49.446;8.576;2023-05-07T02:10:07;135.60;;;123.20;;
38226;SDS011;24026;49.446;8.576;2023-05-07T02:12:28;135.10;;;122.90;;
38226;SDS011;24026;49.446;8.576;2023-05-07T02:14:49;135.20;;;122.95;;
38226;SDS011;24026;49.446;8.576;2023-05-07T02:17:09;136.18;;;123.88;;
38226;SDS011;24026;49.446;8.576;2023-05-07T02:19:30;136.32;;;124.03;;
38226;SDS011;24026;49.446;8.576;2023-05-07T02:21:50;135.40;;;123.15;;
38226;SDS011;24026;49.446;8.576;2023-05-07T02:24:11;135.73;;;123.47;;
38226;SDS011;24026;49.446;8.576;2023-05-07T02:26:31;135.75;;;123.38;;
38226;SDS011;24026;49.446;8.576;2023-05-07T02:28:52;136.82;;;124.47;;
38226;SDS011;24026;49.446;8.576;2023-05-07T02:31:13;134.68;;;122.50;;
38226;SDS011;24026;49.446;8.576;2023-05-07T02:33:33;136.35;;;124.00;;
38226;SDS011;24026;49.446;8.576;2023-05-07T02:35:55;135.32;;;123.03;;
38226;SDS011;24026;49.446;8.576;2023-05-07T02:38:15;135.45;;;123.10;;
38226;SDS011;24026;49.446;8.576;2023-05-07T02:40:36;134.57;;;122.40;;
38226;SDS011;24026;49.446;8.576;2023-05-07T02:42:59;134.55;;;122.30;;
38226;SDS011;24026;49.446;8.576;2023-05-07T02:45:19;134.48;;;122.25;;
38226;SDS011;24026;49.446;8.576;2023-05-07T02:47:40;135.65;;;123.32;;
38226;SDS011;24026;49.446;8.576;2023-05-07T02:50:00;135.45;;;123.15;;
38226;SDS011;24026;49.446;8.576;2023-05-07T02:52:21;135.65;;;123.38;;
38226;SDS011;24026;49.446;8.576;2023-05-07T02:54:42;135.57;;;123.32;;
38226;SDS011;24026;49.446;8.576;2023-05-07T02:57:02;134.85;;;122.60;;
38226;SDS011;24026;49.446;8.576;2023-05-07T02:59:23;134.52;;;122.38;;
38226;SDS011;24026;49.446;8.576;2023-05-07T03:01:45;134.88;;;122.57;;
38226;SDS011;24026;49.446;8.576;2023-05-07T03:04:05;134.60;;;122.45;;
38226;SDS011;24026;49.446;8.576;2023-05-07T03:06:25;134.73;;;122.47;;
38226;SDS011;24026;49.446;8.576;2023-05-07T03:08:46;134.02;;;121.90;;
38226;SDS011;24026;49.446;8.576;2023-05-07T03:11:06;135.02;;;122.85;;
38226;SDS011;24026;49.446;8.576;2023-05-07T03:13:27;134.82;;;122.55;;
38226;SDS011;24026;49.446;8.576;2023-05-07T03:15:47;135.05;;;122.65;;
38226;SDS011;24026;49.446;8.576;2023-05-07T03:18:07;135.48;;;123.15;;
38226;SDS011;24026;49.446;8.576;2023-05-07T03:20:28;135.07;;;122.78;;
38226;SDS011;24026;49.446;8.576;2023-05-07T03:22:48;133.30;;;121.20;;
38226;SDS011;24026;49.446;8.576;2023-05-07T03:25:09;133.40;;;121.30;;
38226;SDS011;24026;49.446;8.576;2023-05-07T03:27:30;135.32;;;123.22;;
38226;SDS011;24026;49.446;8.576;2023-05-07T03:29:51;134.20;;;122.00;;
38226;SDS011;24026;49.446;8.576;2023-05-07T03:32:11;133.77;;;121.57;;
38226;SDS011;24026;49.446;8.576;2023-05-07T03:34:31;134.45;;;122.35;;
38226;SDS011;24026;49.446;8.576;2023-05-07T03:36:52;132.73;;;120.60;;
38226;SDS011;24026;49.446;8.576;2023-05-07T03:39:12;133.70;;;121.35;;
38226;SDS011;24026;49.446;8.576;2023-05-07T03:41:32;133.82;;;121.57;;
38226;SDS011;24026;49.446;8.576;2023-05-07T03:43:53;134.55;;;122.25;;
38226;SDS011;24026;49.446;8.576;2023-05-07T03:46:13;133.80;;;121.50;;
38226;SDS011;24026;49.446;8.576;2023-05-07T03:48:33;132.88;;;120.82;;
38226;SDS011;24026;49.446;8.576;2023-05-07T03:50:54;134.48;;;122.28;;
38226;SDS011;24026;49.446;8.576;2023-05-07T03:53:15;134.40;;;122.25;;
38226;SDS011;24026;49.446;8.576;2023-05-07T03:55:36;134.73;;;122.32;;
38226;SDS011;24026;49.446;8.576;2023-05-07T03:57:56;133.77;;;121.57;;
38226;SDS011;24026;49.446;8.576;2023-05-07T04:00:16;134.55;;;122.32;;
38226;SDS011;24026;49.446;8.576;2023-05-07T04:02:37;133.65;;;121.45;;
38226;SDS011;24026;49.446;8.576;2023-05-07T04:04:57;133.75;;;121.63;;
38226;SDS011;24026;49.446;8.576;2023-05-07T04:07:17;133.50;;;121.38;;
38226;SDS011;24026;49.446;8.576;2023-05-07T04:09:38;133.50;;;121.35;;
38226;SDS011;24026;49.446;8.576;2023-05-07T04:11:58;133.90;;;121.80;;
38226;SDS011;24026;49.446;8.576;2023-05-07T04:14:19;134.70;;;122.50;;
38226;SDS011;24026;49.446;8.576;2023-05-07T04:16:39;134.18;;;121.97;;
38226;SDS011;24026;49.446;8.576;2023-05-07T04:18:59;134.98;;;122.75;;
38226;SDS011;24026;49.446;8.576;2023-05-07T04:21:20;133.32;;;121.22;;
38226;SDS011;24026;49.446;8.576;2023-05-07T04:23:41;132.30;;;120.30;;
38226;SDS011;24026;49.446;8.576;2023-05-07T04:26:01;133.93;;;121.70;;
38226;SDS011;24026;49.446;8.576;2023-05-07T04:28:21;133.18;;;121.03;;
38226;SDS011;24026;49.446;8.576;2023-05-07T04:30:42;133.20;;;120.90;;
38226;SDS011;24026;49.446;8.576;2023-05-07T04:33:02;132.43;;;120.38;;
38226;SDS011;24026;49.446;8.576;2023-05-07T04:35:22;134.50;;;122.25;;
38226;SDS011;24026;49.446;8.576;2023-05-07T04:37:43;134.00;;;121.78;;
38226;SDS011;24026;49.446;8.576;2023-05-07T04:40:03;133.70;;;121.40;;
38226;SDS011;24026;49.446;8.576;2023-05-07T04:42:24;133.25;;;121.13;;
38226;SDS011;24026;49.446;8.576;2023-05-07T04:44:45;133.35;;;121.05;;
38226;SDS011;24026;49.446;8.576;2023-05-07T04:47:05;133.02;;;120.93;;
38226;SDS011;24026;49.446;8.576;2023-05-07T04:49:26;132.68;;;120.53;;
38226;SDS011;24026;49.446;8.576;2023-05-07T04:51:46;133.30;;;121.00;;
38226;SDS011;24026;49.446;8.576;2023-05-07T04:54:07;133.60;;;121.40;;
38226;SDS011;24026;49.446;8.576;2023-05-07T04:56:28;133.55;;;121.35;;
38226;SDS011;24026;49.446;8.576;2023-05-07T04:58:49;132.88;;;120.50;;
38226;SDS011;24026;49.446;8.576;2023-05-07T05:01:10;133.90;;;121.75;;
38226;SDS011;24026;49.446;8.576;2023-05-07T05:03:30;132.40;;;120.43;;
38226;SDS011;24026;49.446;8.576;2023-05-07T05:05:51;132.77;;;120.70;;
38226;SDS011;24026;49.446;8.576;2023-05-07T05:08:12;132.18;;;120.15;;
38226;SDS011;24026;49.446;8.576;2023-05-07T05:10:33;132.02;;;119.95;;
38226;SDS011;24026;49.446;8.576;2023-05-07T05:12:53;132.52;;;120.38;;
38226;SDS011;24026;49.446;8.576;2023-05-07T05:15:13;133.68;;;121.50;;
38226;SDS011;24026;49.446;8.576;2023-05-07T05:17:34;132.20;;;120.18;;
38226;SDS011;24026;49.446;8.576;2023-05-07T05:19:55;133.13;;;121.03;;
38226;SDS011;24026;49.446;8.576;2023-05-07T05:22:16;133.98;;;121.88;;
38226;SDS011;24026;49.446;8.576;2023-05-07T05:24:36;132.18;;;120.07;;
38226;SDS011;24026;49.446;8.576;2023-05-07T05:26:57;133.18;;;121.03;;
38226;SDS011;24026;49.446;8.576;2023-05-07T05:29:19;132.20;;;120.20;;
38226;SDS011;24026;49.446;8.576;2023-05-07T05:31:40;133.20;;;121.00;;
38226;SDS011;24026;49.446;8.576;2023-05-07T05:34:02;137.65;;;125.25;;
38226;SDS011;24026;49.446;8.576;2023-05-07T05:36:22;132.65;;;120.63;;
38226;SDS011;24026;49.446;8.576;2023-05-07T05:38:43;132.60;;;120.53;;
38226;SDS011;24026;49.446;8.576;2023-05-07T05:41:04;133.23;;;121.13;;
38226;SDS011;24026;49.446;8.576;2023-05-07T05:43:24;134.30;;;122.13;;
38226;SDS011;24026;49.446;8.576;2023-05-07T05:45:45;133.43;;;121.32;;
38226;SDS011;24026;49.446;8.576;2023-05-07T05:48:05;133.13;;;121.05;;
38226;SDS011;24026;49.446;8.576;2023-05-07T05:50:26;133.30;;;121.20;;
38226;SDS011;24026;49.446;8.576;2023-05-07T05:52:46;132.63;;;120.53;;
38226;SDS011;24026;49.446;8.576;2023-05-07T05:55:07;132.35;;;120.25;;
38226;SDS011;24026;49.446;8.576;2023-05-07T05:57:28;134.32;;;122.15;;
38226;SDS011;24026;49.446;8.576;2023-05-07T05:59:49;134.50;;;122.40;;
38226;SDS011;24026;49.446;8.576;2023-05-07T06:02:09;133.20;;;121.10;;
38226;SDS011;24026;49.446;8.576;2023-05-07T06:04:29;132.02;;;120.03;;
38226;SDS011;24026;49.446;8.576;2023-05-07T06:06:50;133.55;;;121.35;;
38226;SDS011;24026;49.446;8.576;2023-05-07T06:09:10;131.95;;;119.85;;
38226;SDS011;24026;49.446;8.576;2023-05-07T06:11:32;131.68;;;119.68;;
38226;SDS011;24026;49.446;8.576;2023-05-07T06:13:52;133.20;;;121.15;;
38226;SDS011;24026;49.446;8.576;2023-05-07T06:16:13;132.30;;;120.30;;
38226;SDS011;24026;49.446;8.576;2023-05-07T06:18:34;132.80;;;120.70;;
38226;SDS011;24026;49.446;8.576;2023-05-07T06:20:56;132.98;;;120.93;;
38226;SDS011;24026;49.446;8.576;2023-05-07T06:23:16;134.07;;;121.97;;
38226;SDS011;24026;49.446;8.576;2023-05-07T06:25:36;132.70;;;120.57;;
38226;SDS011;24026;49.446;8.576;2023-05-07T06:27:57;133.15;;;121.15;;
38226;SDS011;24026;49.446;8.576;2023-05-07T06:30:17;131.85;;;119.88;;
38226;SDS011;24026;49.446;8.576;2023-05-07T06:32:37;133.20;;;121.10;;
38226;SDS011;24026;49.446;8.576;2023-05-07T06:35:00;133.05;;;121.03;;
38226;SDS011;24026;49.446;8.576;2023-05-07T06:37:20;133.90;;;121.80;;
38226;SDS011;24026;49.446;8.576;2023-05-07T06:39:41;133.20;;;121.13;;
38226;SDS011;24026;49.446;8.576;2023-05-07T06:42:01;134.13;;;122.03;;
38226;SDS011;24026;49.446;8.576;2023-05-07T06:44:22;133.55;;;121.43;;
38226;SDS011;24026;49.446;8.576;2023-05-07T06:46:42;133.20;;;121.13;;
38226;SDS011;24026;49.446;8.576;2023-05-07T06:49:03;133.20;;;121.15;;
38226;SDS011;24026;49.446;8.576;2023-05-07T06:51:23;134.52;;;122.45;;
38226;SDS011;24026;49.446;8.576;2023-05-07T06:53:44;135.05;;;122.88;;
38226;SDS011;24026;49.446;8.576;2023-05-07T06:56:04;134.30;;;122.20;;
38226;SDS011;24026;49.446;8.576;2023-05-07T06:58:25;134.35;;;122.25;;
38226;SDS011;24026;49.446;8.576;2023-05-07T07:00:45;134.02;;;121.93;;
38226;SDS011;24026;49.446;8.576;2023-05-07T07:03:06;133.60;;;121.53;;
38226;SDS011;24026;49.446;8.576;2023-05-07T07:05:27;134.80;;;122.70;;
38226;SDS011;24026;49.446;8.576;2023-05-07T07:07:47;134.00;;;121.95;;
38226;SDS011;24026;49.446;8.576;2023-05-07T07:10:12;133.68;;;121.68;;
38226;SDS011;24026;49.446;8.576;2023-05-07T07:12:33;133.00;;;121.00;;
38226;SDS011;24026;49.446;8.576;2023-05-07T07:14:53;133.98;;;121.88;;
38226;SDS011;24026;49.446;8.576;2023-05-07T07:17:13;133.93;;;121.82;;
38226;SDS011;24026;49.446;8.576;2023-05-07T07:19:34;132.35;;;120.43;;
38226;SDS011;24026;49.446;8.576;2023-05-07T07:21:54;133.50;;;121.50;;
38226;SDS011;24026;49.446;8.576;2023-05-07T07:24:15;133.10;;;121.13;;
38226;SDS011;24026;49.446;8.576;2023-05-07T07:26:41;133.98;;;121.85;;
38226;SDS011;24026;49.446;8.576;2023-05-07T07:29:02;134.13;;;122.07;;
38226;SDS011;24026;49.446;8.576;2023-05-07T07:31:23;135.25;;;123.18;;
38226;SDS011;24026;49.446;8.576;2023-05-07T07:33:43;134.50;;;122.35;;
38226;SDS011;24026;49.446;8.576;2023-05-07T07:36:04;134.48;;;122.43;;
38226;SDS011;24026;49.446;8.576;2023-05-07T07:38:25;134.98;;;122.85;;
38226;SDS011;24026;49.446;8.576;2023-05-07T07:40:47;135.40;;;123.30;;
38226;SDS011;24026;49.446;8.576;2023-05-07T07:43:07;134.43;;;122.38;;
38226;SDS011;24026;49.446;8.576;2023-05-07T07:45:28;134.32;;;122.32;;
38226;SDS011;24026;49.446;8.576;2023-05-07T07:47:49;138.00;;;125.75;;
38226;SDS011;24026;49.446;8.576;2023-05-07T07:50:09;135.57;;;123.43;;
38226;SDS011;24026;49.446;8.576;2023-05-07T07:52:30;134.98;;;122.90;;
38226;SDS011;24026;49.446;8.576;2023-05-07T07:54:50;136.00;;;123.82;;
38226;SDS011;24026;49.446;8.576;2023-05-07T07:57:10;134.13;;;122.10;;
38226;SDS011;24026;49.446;8.576;2023-05-07T07:59:31;134.60;;;122.57;;
38226;SDS011;24026;49.446;8.576;2023-05-07T08:01:51;133.80;;;121.80;;
38226;SDS011;24026;49.446;8.576;2023-05-07T08:04:14;135.80;;;123.65;;
38226;SDS011;24026;49.446;8.576;2023-05-07T08:06:34;134.52;;;122.53;;
38226;SDS011;24026;49.446;8.576;2023-05-07T08:08:55;135.75;;;123.63;;
38226;SDS011;24026;49.446;8.576;2023-05-07T08:11:15;134.63;;;122.63;;
38226;SDS011;24026;49.446;8.576;2023-05-07T08:13:36;135.90;;;123.75;;
38226;SDS011;24026;49.446;8.576;2023-05-07T08:15:58;135.85;;;123.65;;
38226;SDS011;24026;49.446;8.576;2023-05-07T08:18:18;134.75;;;122.72;;
38226;SDS011;24026;49.446;8.576;2023-05-07T08:20:39;136.30;;;124.10;;
38226;SDS011;24026;49.446;8.576;2023-05-07T08:22:59;137.88;;;125.57;;
38226;SDS011;24026;49.446;8.576;2023-05-07T08:25:20;135.73;;;123.65;;
38226;SDS011;24026;49.446;8.576;2023-05-07T08:27:40;135.27;;;123.25;;
38226;SDS011;24026;49.446;8.576;2023-05-07T08:30:01;135.98;;;123.88;;
38226;SDS011;24026;49.446;8.576;2023-05-07T08:32:21;135.90;;;123.80;;
38226;SDS011;24026;49.446;8.576;2023-05-07T08:34:42;135.68;;;123.65;;
38226;SDS011;24026;49.446;8.576;2023-05-07T08:37:02;135.18;;;123.18;;
38226;SDS011;24026;49.446;8.576;2023-05-07T08:39:22;134.68;;;122.72;;
38226;SDS011;24026;49.446;8.576;2023-05-07T08:41:46;135.45;;;123.35;;
38226;SDS011;24026;49.446;8.576;2023-05-07T08:44:11;136.35;;;124.32;;
38226;SDS011;24026;49.446;8.576;2023-05-07T08:46:33;136.55;;;124.50;;
38226;SDS011;24026;49.446;8.576;2023-05-07T08:48:54;136.25;;;124.10;;
38226;SDS011;24026;49.446;8.576;2023-05-07T08:51:18;136.35;;;124.25;;
38226;SDS011;24026;49.446;8.576;2023-05-07T08:53:40;135.88;;;123.88;;
38226;SDS011;24026;49.446;8.576;2023-05-07T08:56:01;136.13;;;124.13;;
38226;SDS011;24026;49.446;8.576;2023-05-07T08:58:22;135.93;;;123.82;;
38226;SDS011;24026;49.446;8.576;2023-05-07T09:00:43;137.90;;;125.80;;
38226;SDS011;24026;49.446;8.576;2023-05-07T09:03:03;137.23;;;125.13;;
38226;SDS011;24026;49.446;8.576;2023-05-07T09:05:24;137.05;;;125.00;;
38226;SDS011;24026;49.446;8.576;2023-05-07T09:07:44;137.25;;;125.15;;
38226;SDS011;24026;49.446;8.576;2023-05-07T09:10:06;136.95;;;124.90;;
38226;SDS011;24026;49.446;8.576;2023-05-07T09:12:26;138.18;;;126.07;;
38226;SDS011;24026;49.446;8.576;2023-05-07T09:14:47;137.57;;;125.47;;
38226;SDS011;24026;49.446;8.576;2023-05-07T09:17:07;137.75;;;125.63;;
38226;SDS011;24026;49.446;8.576;2023-05-07T09:19:28;137.25;;;125.20;;
38226;SDS011;24026;49.446;8.576;2023-05-07T09:21:48;137.27;;;125.18;;
38226;SDS011;24026;49.446;8.576;2023-05-07T09:24:08;135.80;;;123.85;;
38226;SDS011;24026;49.446;8.576;2023-05-07T09:26:29;138.68;;;126.50;;
38226;SDS011;24026;49.446;8.576;2023-05-07T09:28:49;137.25;;;125.15;;
38226;SDS011;24026;49.446;8.576;2023-05-07T09:31:10;137.65;;;125.55;;
38226;SDS011;24026;49.446;8.576;2023-05-07T09:33:31;138.25;;;126.07;;
38226;SDS011;24026;49.446;8.576;2023-05-07T09:35:51;137.25;;;125.13;;
38226;SDS011;24026;49.446;8.576;2023-05-07T09:38:12;136.88;;;124.60;;
38226;SDS011;24026;49.446;8.576;2023-05-07T09:40:32;136.68;;;124.65;;
38226;SDS011;24026;49.446;8.576;2023-05-07T09:42:53;138.13;;;126.03;;
38226;SDS011;24026;49.446;8.576;2023-05-07T09:45:14;137.90;;;125.80;;
38226;SDS011;24026;49.446;8.576;2023-05-07T09:47:34;138.68;;;126.53;;
38226;SDS011;24026;49.446;8.576;2023-05-07T09:49:58;140.32;;;128.13;;
38226;SDS011;24026;49.446;8.576;2023-05-07T09:52:21;137.93;;;125.82;;
38226;SDS011;24026;49.446;8.576;2023-05-07T09:54:43;138.02;;;125.93;;
38226;SDS011;24026;49.446;8.576;2023-05-07T09:57:05;137.68;;;125.70;;
38226;SDS011;24026;49.446;8.576;2023-05-07T09:59:27;138.77;;;126.68;;
38226;SDS011;24026;49.446;8.576;2023-05-07T10:01:47;139.15;;;126.97;;
38226;SDS011;24026;49.446;8.576;2023-05-07T10:04:09;138.32;;;126.28;;
38226;SDS011;24026;49.446;8.576;2023-05-07T10:06:30;139.00;;;126.90;;
38226;SDS011;24026;49.446;8.576;2023-05-07T10:08:51;139.18;;;127.03;;
38226;SDS011;24026;49.446;8.576;2023-05-07T10:11:12;138.68;;;126.60;;
38226;SDS011;24026;49.446;8.576;2023-05-07T10:13:35;138.73;;;126.60;;
38226;SDS011;24026;49.446;8.576;2023-05-07T10:15:57;139.10;;;126.97;;
38226;SDS011;24026;49.446;8.576;2023-05-07T10:18:18;138.43;;;126.35;;
38226;SDS011;24026;49.446;8.576;2023-05-07T10:20:42;139.43;;;127.30;;
38226;SDS011;24026;49.446;8.576;2023-05-07T10:23:05;139.85;;;127.68;;
38226;SDS011;24026;49.446;8.576;2023-05-07T10:25:31;139.63;;;127.43;;
38226;SDS011;24026;49.446;8.576;2023-05-07T10:27:52;140.32;;;128.18;;
38226;SDS011;24026;49.446;8.576;2023-05-07T10:30:38;139.85;;;127.55;;
38226;SDS011;24026;49.446;8.576;2023-05-07T10:33:01;139.82;;;127.65;;
38226;SDS011;24026;49.446;8.576;2023-05-07T10:35:26;140.60;;;128.40;;
38226;SDS011;24026;49.446;8.576;2023-05-07T10:37:51;139.18;;;127.05;;
38226;SDS011;24026;49.446;8.576;2023-05-07T10:40:12;139.90;;;127.78;;
38226;SDS011;24026;49.446;8.576;2023-05-07T10:42:33;140.20;;;128.00;;
38226;SDS011;24026;49.446;8.576;2023-05-07T10:44:54;139.88;;;127.75;;
38226;SDS011;24026;49.446;8.576;2023-05-07T10:47:15;137.65;;;125.45;;
38226;SDS011;24026;49.446;8.576;2023-05-07T10:52:18;136.80;;;124.80;;
38226;SDS011;24026;49.446;8.576;2023-05-07T10:54:40;136.80;;;124.80;;
38226;SDS011;24026;49.446;8.576;2023-05-07T10:57:17;137.10;;;125.15;;
38226;SDS011;24026;49.446;8.576;2023-05-07T10:59:56;137.23;;;125.25;;
38226;SDS011;24026;49.446;8.576;2023-05-07T11:02:16;138.40;;;126.40;;
38226;SDS011;24026;49.446;8.576;2023-05-07T11:04:37;138.02;;;126.03;;
38226;SDS011;24026;49.446;8.576;2023-05-07T11:12:13;138.15;;;126.13;;
38226;SDS011;24026;49.446;8.576;2023-05-07T11:17:02;139.55;;;127.38;;
38226;SDS011;24026;49.446;8.576;2023-05-07T11:20:05;137.73;;;125.72;;
38226;SDS011;24026;49.446;8.576;2023-05-07T11:24:53;137.93;;;125.93;;
38226;SDS011;24026;49.446;8.576;2023-05-07T11:27:13;139.40;;;127.30;;
38226;SDS011;24026;49.446;8.576;2023-05-07T11:29:34;139.93;;;127.80;;
38226;SDS011;24026;49.446;8.576;2023-05-07T11:31:55;138.55;;;126.45;;
38226;SDS011;24026;49.446;8.576;2023-05-07T11:34:15;138.38;;;126.38;;
38226;SDS011;24026;49.446;8.576;2023-05-07T11:36:42;137.88;;;125.93;;
38226;SDS011;24026;49.446;8.576;2023-05-07T11:39:04;139.25;;;127.18;;
38226;SDS011;24026;49.446;8.576;2023-05-07T11:41:34;139.55;;;127.50;;
38226;SDS011;24026;49.446;8.576;2023-05-07T11:43:58;139.05;;;126.97;;
38226;SDS011;24026;49.446;8.576;2023-05-07T11:46:19;138.75;;;126.45;;
38226;SDS011;24026;49.446;8.576;2023-05-07T11:48:40;139.50;;;127.47;;
38226;SDS011;24026;49.446;8.576;2023-05-07T11:51:02;139.57;;;127.53;;
38226;SDS011;24026;49.446;8.576;2023-05-07T11:53:27;139.77;;;127.55;;
38226;SDS011;24026;49.446;8.576;2023-05-07T11:55:55;140.45;;;128.32;;
38226;SDS011;24026;49.446;8.576;2023-05-07T11:58:22;139.68;;;127.68;;
38226;SDS011;24026;49.446;8.576;2023-05-07T12:00:50;138.95;;;126.95;;
38226;SDS011;24026;49.446;8.576;2023-05-07T12:03:14;139.82;;;127.75;;
38226;SDS011;24026;49.446;8.576;2023-05-07T12:05:34;139.52;;;127.47;;
38226;SDS011;24026;49.446;8.576;2023-05-07T12:07:57;139.35;;;127.28;;
38226;SDS011;24026;49.446;8.576;2023-05-07T12:10:18;139.77;;;127.68;;
38226;SDS011;24026;49.446;8.576;2023-05-07T12:12:45;139.55;;;127.55;;
38226;SDS011;24026;49.446;8.576;2023-05-07T12:15:06;139.52;;;127.60;;
38226;SDS011;24026;49.446;8.576;2023-05-07T12:17:27;139.65;;;127.47;;
38226;SDS011;24026;49.446;8.576;2023-05-07T12:19:48;139.63;;;127.65;;
38226;SDS011;24026;49.446;8.576;2023-05-07T12:22:09;140.45;;;128.35;;
38226;SDS011;24026;49.446;8.576;2023-05-07T12:27:23;139.35;;;127.32;;
38226;SDS011;24026;49.446;8.576;2023-05-07T12:29:44;140.88;;;128.77;;
38226;SDS011;24026;49.446;8.576;2023-05-07T12:32:06;141.93;;;129.73;;
38226;SDS011;24026;49.446;8.576;2023-05-07T12:34:27;141.48;;;129.30;;
38226;SDS011;24026;49.446;8.576;2023-05-07T12:36:48;141.05;;;128.98;;
38226;SDS011;24026;49.446;8.576;2023-05-07T12:39:08;141.15;;;129.07;;
38226;SDS011;24026;49.446;8.576;2023-05-07T12:41:29;140.63;;;128.55;;
38226;SDS011;24026;49.446;8.576;2023-05-07T12:43:50;143.02;;;130.82;;
38226;SDS011;24026;49.446;8.576;2023-05-07T12:46:16;142.38;;;130.18;;
38226;SDS011;24026;49.446;8.576;2023-05-07T12:48:38;142.63;;;130.52;;
38226;SDS011;24026;49.446;8.576;2023-05-07T12:51:05;142.50;;;130.30;;
38226;SDS011;24026;49.446;8.576;2023-05-07T12:53:28;141.80;;;129.60;;
38226;SDS011;24026;49.446;8.576;2023-05-07T12:55:49;142.13;;;130.00;;
38226;SDS011;24026;49.446;8.576;2023-05-07T12:58:19;142.63;;;130.43;;
38226;SDS011;24026;49.446;8.576;2023-05-07T13:00:41;141.07;;;129.02;;
38226;SDS011;24026;49.446;8.576;2023-05-07T13:03:03;142.77;;;130.60;;
38226;SDS011;24026;49.446;8.576;2023-05-07T13:05:23;142.23;;;130.13;;
38226;SDS011;24026;49.446;8.576;2023-05-07T13:07:52;142.65;;;130.50;;
38226;SDS011;24026;49.446;8.576;2023-05-07T13:10:16;142.25;;;130.15;;
38226;SDS011;24026;49.446;8.576;2023-05-07T13:12:37;143.18;;;131.02;;
38226;SDS011;24026;49.446;8.576;2023-05-07T13:14:57;143.15;;;131.00;;
38226;SDS011;24026;49.446;8.576;2023-05-07T13:17:19;142.15;;;130.05;;
38226;SDS011;24026;49.446;8.576;2023-05-07T13:19:39;142.48;;;130.32;;
38226;SDS011;24026;49.446;8.576;2023-05-07T13:22:00;142.85;;;130.65;;
38226;SDS011;24026;49.446;8.576;2023-05-07T13:24:20;143.85;;;131.68;;
38226;SDS011;24026;49.446;8.576;2023-05-07T13:26:40;143.25;;;131.05;;
38226;SDS011;24026;49.446;8.576;2023-05-07T13:29:01;143.52;;;131.32;;
38226;SDS011;24026;49.446;8.576;2023-05-07T13:31:21;144.23;;;131.90;;
38226;SDS011;24026;49.446;8.576;2023-05-07T13:33:42;144.13;;;131.88;;
38226;SDS011;24026;49.446;8.576;2023-05-07T13:36:03;142.25;;;130.10;;
38226;SDS011;24026;49.446;8.576;2023-05-07T13:38:25;142.20;;;130.10;;